"WATCHING THE WEATHER TO PROTECT LIFE AND PROPERTY"


Aviation
Satellite (InfraRed)


TNCA 160000Z 08015KT 9999 FEW018 28/24 Q1010 NOSIG
TNCB 152355Z AUTO 08014KT 050V120 9999 FEW019/// SCT033/// 28/24 Q1011
TNCC 160000Z AUTO 10014KT 9999 SCT022 28/24 Q1011 NOSIG